Time;durP1;ratioP1;P1;durP2;ratioP2;P2;SDS_P1;SDS_P2;PMS_P1;PMS_P2;Temp;Humidity;BMP_temperature;BMP_pressure;BME280_temperature;BME280_humidity;BME280_pressure;Samples;Min_cycle;Max_cycle;Signal;HPM_P1;HPM_P2
2023/05/20 00:01:34;;;;;;;9.38;3.30;;;;;;;;;;6217878;23;20401;-95
2023/05/20 00:03:59;;;;;;;5.22;2.65;;;;;;;;;;6217667;23;20035;-95
2023/05/20 00:06:45;;;;;;;6.32;2.90;;;;;;;;;;6216910;23;19996;-94
2023/05/20 00:09:18;;;;;;;6.07;2.72;;;;;;;;;;6215996;23;20020;-95
2023/05/20 00:11:44;;;;;;;13.50;3.00;;;;;;;;;;6217571;23;20000;-94
2023/05/20 00:14:12;;;;;;;5.47;2.28;;;;;;;;;;6216673;23;20065;-96
2023/05/20 00:16:47;;;;;;;6.38;2.65;;;;;;;;;;6217343;23;20004;-94
2023/05/20 00:19:15;;;;;;;5.22;2.85;;;;;;;;;;6217473;23;20079;-95
2023/05/20 00:21:46;;;;;;;5.70;2.92;;;;;;;;;;6217844;23;20387;-94
2023/05/20 00:24:16;;;;;;;5.72;2.83;;;;;;;;;;6216826;23;20007;-95
2023/05/20 00:26:41;;;;;;;6.45;2.80;;;;;;;;;;6217222;23;20008;-94
2023/05/20 00:29:16;;;;;;;8.85;2.65;;;;;;;;;;6217753;23;20008;-95
2023/05/20 00:31:41;;;;;;;6.25;2.90;;;;;;;;;;6217757;23;20072;-96
2023/05/20 00:34:12;;;;;;;9.48;3.00;;;;;;;;;;6218621;23;20000;-94
2023/05/20 00:36:42;;;;;;;5.50;2.78;;;;;;;;;;6216754;23;20008;-94
2023/05/20 00:39:09;;;;;;;3.72;2.38;;;;;;;;;;6217198;23;20431;-94
2023/05/20 00:41:38;;;;;;;5.45;2.45;;;;;;;;;;6220884;23;20000;-96
2023/05/20 00:44:03;;;;;;;5.97;2.30;;;;;;;;;;6220835;23;20011;-96
2023/05/20 00:46:29;;;;;;;4.43;2.08;;;;;;;;;;6218842;23;20036;-94
2023/05/20 00:48:54;;;;;;;4.90;2.20;;;;;;;;;;6220941;23;20574;-94
2023/05/20 00:51:25;;;;;;;3.67;1.98;;;;;;;;;;6220363;23;20008;-95
2023/05/20 00:53:53;;;;;;;5.18;2.40;;;;;;;;;;6220837;23;20019;-95
2023/05/20 00:56:21;;;;;;;3.65;2.00;;;;;;;;;;6219318;23;20074;-94
2023/05/20 00:58:51;;;;;;;3.90;2.00;;;;;;;;;;6219774;23;20044;-96
2023/05/20 01:01:17;;;;;;;5.55;1.77;;;;;;;;;;6219998;23;20019;-95
2023/05/20 01:03:48;;;;;;;3.20;1.95;;;;;;;;;;6219795;23;20008;-94
2023/05/20 01:06:41;;;;;;;3.80;1.85;;;;;;;;;;6220072;23;20423;-96
2023/05/20 01:09:09;;;;;;;4.75;2.17;;;;;;;;;;6218773;23;20015;-94
2023/05/20 01:11:37;;;;;;;8.27;2.13;;;;;;;;;;6218101;23;20000;-95
2023/05/20 01:14:07;;;;;;;4.80;1.50;;;;;;;;;;6219193;23;20087;-94
2023/05/20 01:16:34;;;;;;;4.25;2.00;;;;;;;;;;6218878;23;20026;-94
2023/05/20 01:19:01;;;;;;;3.85;1.80;;;;;;;;;;6220079;23;20482;-96
2023/05/20 01:21:26;;;;;;;4.25;2.00;;;;;;;;;;6219318;23;20770;-94
2023/05/20 01:24:04;;;;;;;4.15;1.98;;;;;;;;;;6217716;23;20058;-93
2023/05/20 01:26:29;;;;;;;3.38;1.80;;;;;;;;;;6218925;23;20004;-95
2023/05/20 01:29:03;;;;;;;9.38;2.08;;;;;;;;;;6219913;23;20003;-94
2023/05/20 01:31:31;;;;;;;2.55;1.77;;;;;;;;;;6220312;23;20000;-96
2023/05/20 01:33:57;;;;;;;5.28;2.42;;;;;;;;;;6218588;23;20008;-95
2023/05/20 01:36:33;;;;;;;4.43;1.88;;;;;;;;;;6218165;23;19996;-96
2023/05/20 01:38:59;;;;;;;6.40;2.08;;;;;;;;;;6219313;23;19997;-95
2023/05/20 01:41:30;;;;;;;5.20;1.90;;;;;;;;;;6219742;23;20007;-93
2023/05/20 01:43:56;;;;;;;4.80;2.10;;;;;;;;;;6219189;23;20016;-95
2023/05/20 01:46:33;;;;;;;7.45;2.45;;;;;;;;;;6217464;23;20028;-95
2023/05/20 01:49:14;;;;;;;;;;;;;;;;;;;;;
2023/05/20 01:51:52;;;;;;;5.25;2.20;;;;;;;;;;6245094;23;20083;-96
2023/05/20 01:54:38;;;;;;;2.90;1.70;;;;;;;;;;6219113;23;20004;-94
2023/05/20 01:57:03;;;;;;;4.25;2.63;;;;;;;;;;6245591;23;20444;-95
2023/05/20 01:59:28;;;;;;;7.20;2.25;;;;;;;;;;6219385;23;20007;-95
2023/05/20 02:01:53;;;;;;;4.53;2.10;;;;;;;;;;6219174;23;20015;-95
2023/05/20 02:04:21;;;;;;;9.27;1.92;;;;;;;;;;6219038;23;20024;-96
2023/05/20 02:06:48;;;;;;;6.75;2.55;;;;;;;;;;6218489;23;20019;-94
2023/05/20 02:09:14;;;;;;;8.23;2.55;;;;;;;;;;6217317;23;20328;-95
2023/05/20 02:11:39;;;;;;;4.53;1.98;;;;;;;;;;6218225;23;20462;-93
2023/05/20 02:14:05;;;;;;;6.22;2.40;;;;;;;;;;6217676;23;20004;-95
2023/05/20 02:16:30;;;;;;;6.63;2.10;;;;;;;;;;6218308;23;20326;-95
2023/05/20 02:18:57;;;;;;;7.07;2.33;;;;;;;;;;6217974;23;20004;-94
2023/05/20 02:21:22;;;;;;;4.43;2.20;;;;;;;;;;6219014;23;20004;-95
2023/05/20 02:23:48;;;;;;;5.95;2.03;;;;;;;;;;6218865;23;20039;-95
2023/05/20 02:26:13;;;;;;;2.75;1.90;;;;;;;;;;6218174;23;20007;-95
2023/05/20 02:28:43;;;;;;;12.43;2.60;;;;;;;;;;6217941;23;20012;-95
2023/05/20 02:31:09;;;;;;;4.18;2.25;;;;;;;;;;6217825;23;20004;-94
2023/05/20 02:33:34;;;;;;;6.45;2.08;;;;;;;;;;6217974;23;20318;-94
2023/05/20 02:36:00;;;;;;;4.80;2.15;;;;;;;;;;6218752;23;20007;-95
2023/05/20 02:38:25;;;;;;;4.28;2.15;;;;;;;;;;6218284;23;20000;-95
2023/05/20 02:40:55;;;;;;;5.95;1.75;;;;;;;;;;6218116;23;20054;-95
2023/05/20 02:43:26;;;;;;;3.25;2.15;;;;;;;;;;6217680;23;20019;-94
2023/05/20 02:45:51;;;;;;;3.90;1.85;;;;;;;;;;6217473;23;20019;-94
2023/05/20 02:48:16;;;;;;;6.50;1.98;;;;;;;;;;6217502;23;20004;-95
2023/05/20 02:50:43;;;;;;;3.05;1.83;;;;;;;;;;6218315;23;20000;-94
2023/05/20 02:53:08;;;;;;;4.18;2.13;;;;;;;;;;6218605;23;20034;-95
2023/05/20 02:55:34;;;;;;;6.32;2.50;;;;;;;;;;6219870;23;20004;-96
2023/05/20 02:58:02;;;;;;;8.25;2.42;;;;;;;;;;6219202;23;20052;-93
2023/05/20 03:00:30;;;;;;;9.75;2.30;;;;;;;;;;6221058;23;20019;-95
2023/05/20 03:03:08;;;;;;;;;;;;;;;;;;;;;
2023/05/20 03:05:36;;;;;;;5.40;2.05;;;;;;;;;;6246057;23;20079;-95
2023/05/20 03:08:08;;;;;;;5.72;2.35;;;;;;;;;;6218523;23;20577;-93
2023/05/20 03:10:35;;;;;;;5.15;2.35;;;;;;;;;;6217204;23;20004;-94
2023/05/20 03:13:00;;;;;;;4.22;2.25;;;;;;;;;;6217783;23;20004;-94
2023/05/20 03:15:30;;;;;;;5.00;2.30;;;;;;;;;;6218425;23;20082;-95
2023/05/20 03:17:56;;;;;;;4.70;2.03;;;;;;;;;;6218141;23;19996;-95
2023/05/20 03:20:21;;;;;;;4.05;1.77;;;;;;;;;;6217953;23;20000;-95
2023/05/20 03:22:47;;;;;;;3.47;1.92;;;;;;;;;;6217765;23;20004;-93
2023/05/20 03:25:15;;;;;;;7.30;2.25;;;;;;;;;;6218375;23;19996;-94
2023/05/20 03:27:41;;;;;;;4.93;2.20;;;;;;;;;;6218353;23;20019;-95
2023/05/20 03:30:17;;;;;;;4.50;1.98;;;;;;;;;;6219270;23;20087;-94
2023/05/20 03:32:43;;;;;;;4.25;2.20;;;;;;;;;;6216478;23;20004;-95
2023/05/20 03:35:08;;;;;;;6.38;3.10;;;;;;;;;;6217910;23;20004;-96
2023/05/20 03:37:41;;;;;;;5.82;2.15;;;;;;;;;;6217997;23;20013;-94
2023/05/20 03:40:12;;;;;;;10.07;2.80;;;;;;;;;;6218307;23;20003;-94
2023/05/20 03:42:40;;;;;;;6.80;2.50;;;;;;;;;;6217681;23;20000;-94
2023/05/20 03:45:06;;;;;;;12.07;2.67;;;;;;;;;;6218024;23;20427;-95
2023/05/20 03:47:31;;;;;;;7.10;3.22;;;;;;;;;;6218275;23;20107;-93
2023/05/20 03:49:59;;;;;;;10.35;2.92;;;;;;;;;;6218479;23;20003;-95
2023/05/20 03:52:28;;;;;;;7.95;2.58;;;;;;;;;;6216760;23;20390;-95
2023/05/20 03:54:56;;;;;;;8.85;3.08;;;;;;;;;;6216277;23;20062;-95
2023/05/20 03:57:21;;;;;;;4.72;2.13;;;;;;;;;;6216896;23;20308;-94
2023/05/20 03:59:49;;;;;;;8.68;2.95;;;;;;;;;;6217593;23;20003;-94
2023/05/20 04:02:15;;;;;;;10.50;2.80;;;;;;;;;;6217612;23;20099;-94
2023/05/20 04:04:41;;;;;;;5.53;2.53;;;;;;;;;;6217974;23;20000;-94
2023/05/20 04:07:07;;;;;;;12.23;2.70;;;;;;;;;;6216843;23;20020;-93
2023/05/20 04:09:32;;;;;;;6.90;2.70;;;;;;;;;;6218248;23;20016;-96
2023/05/20 04:12:00;;;;;;;9.95;3.20;;;;;;;;;;6218644;23;20031;-94
2023/05/20 04:14:25;;;;;;;3.90;2.47;;;;;;;;;;6218642;23;20330;-94
2023/05/20 04:16:51;;;;;;;10.82;3.00;;;;;;;;;;6220423;23;20004;-96
2023/05/20 04:19:18;;;;;;;9.68;3.03;;;;;;;;;;6219914;23;20004;-94
2023/05/20 04:21:43;;;;;;;5.38;2.92;;;;;;;;;;6220836;23;20035;-94
2023/05/20 04:24:09;;;;;;;4.28;2.58;;;;;;;;;;6221033;23;20510;-95
2023/05/20 04:26:34;;;;;;;5.78;2.83;;;;;;;;;;6220416;23;20008;-94
2023/05/20 04:29:02;;;;;;;8.00;2.88;;;;;;;;;;6220338;23;20004;-96
2023/05/20 04:31:30;;;;;;;8.88;2.75;;;;;;;;;;6223339;23;20323;-96
2023/05/20 04:33:56;;;;;;;7.40;2.55;;;;;;;;;;6221889;23;20051;-95
2023/05/20 04:36:27;;;;;;;6.50;2.53;;;;;;;;;;6228348;23;20417;-96
2023/05/20 04:38:56;;;;;;;7.53;2.67;;;;;;;;;;6229537;23;20387;-95
2023/05/20 04:41:24;;;;;;;6.38;2.67;;;;;;;;;;6229453;23;20008;-95
2023/05/20 04:44:08;;;;;;;8.35;2.85;;;;;;;;;;6228004;23;20012;-96
2023/05/20 04:46:33;;;;;;;9.18;2.65;;;;;;;;;;6228014;23;20011;-96
2023/05/20 04:48:59;;;;;;;6.43;2.78;;;;;;;;;;6229147;23;20004;-95
2023/05/20 04:51:24;;;;;;;7.93;2.95;;;;;;;;;;6228975;23;20008;-95
2023/05/20 04:53:50;;;;;;;7.80;2.70;;;;;;;;;;6228306;23;20003;-94
2023/05/20 04:56:15;;;;;;;7.35;3.30;;;;;;;;;;6223003;23;20012;-95
2023/05/20 04:58:41;;;;;;;18.63;3.65;;;;;;;;;;6222290;23;20299;-94
2023/05/20 05:01:09;;;;;;;6.20;2.85;;;;;;;;;;6222035;23;20011;-95
2023/05/20 05:03:35;;;;;;;5.57;2.63;;;;;;;;;;6220927;23;20320;-94
2023/05/20 05:06:02;;;;;;;9.48;2.40;;;;;;;;;;6221986;23;19996;-96
2023/05/20 05:08:28;;;;;;;9.05;3.38;;;;;;;;;;6225604;23;20123;-96
2023/05/20 05:10:53;;;;;;;6.88;2.50;;;;;;;;;;6223021;23;20008;-96
2023/05/20 05:13:19;;;;;;;8.32;2.30;;;;;;;;;;6223160;23;20004;-96
2023/05/20 05:15:44;;;;;;;9.25;2.47;;;;;;;;;;6223509;23;20004;-96
2023/05/20 05:18:20;;;;;;;6.20;2.60;;;;;;;;;;6223548;23;20004;-96
2023/05/20 05:20:48;;;;;;;7.85;2.67;;;;;;;;;;6224826;23;20023;-94
2023/05/20 05:23:18;;;;;;;4.40;2.40;;;;;;;;;;6222138;23;19996;-95
2023/05/20 05:25:51;;;;;;;10.32;2.47;;;;;;;;;;6219924;23;20019;-95
2023/05/20 05:28:21;;;;;;;5.30;2.25;;;;;;;;;;6220672;23;20024;-96
2023/05/20 05:30:49;;;;;;;5.35;2.35;;;;;;;;;;6221029;23;20008;-95
2023/05/20 05:33:14;;;;;;;5.28;2.40;;;;;;;;;;6226365;23;20431;-95
2023/05/20 05:35:49;;;;;;;7.50;2.63;;;;;;;;;;6226684;23;20012;-95
2023/05/20 05:38:26;;;;;;;5.22;2.40;;;;;;;;;;6225453;23;20015;-95
2023/05/20 05:47:31;;;;;;;;;;;;;;;;;;;;;
2023/05/20 05:50:08;;;;;;;;;;;;;;;;;;;;;
2023/05/20 05:53:27;;;;;;;4.35;2.33;;;;;;;;;;6249469;23;20023;-96
2023/05/20 06:02:35;;;;;;;;;;;;;;;;;;;;;
2023/05/20 06:05:01;;;;;;;6.35;2.28;;;;;;;;;;6213279;23;20383;-94
2023/05/20 06:07:34;;;;;;;8.18;2.65;;;;;;;;;;6217632;23;20055;-94
2023/05/20 06:09:59;;;;;;;5.50;2.42;;;;;;;;;;6216443;23;20008;-96
2023/05/20 06:12:42;;;;;;;8.02;3.08;;;;;;;;;;6214020;23;19996;-95
2023/05/20 06:15:20;;;;;;;4.28;2.15;;;;;;;;;;6217543;23;20000;-94
2023/05/20 06:17:48;;;;;;;3.83;2.30;;;;;;;;;;6216223;23;20000;-95
2023/05/20 06:20:22;;;;;;;5.35;2.38;;;;;;;;;;6220971;23;20020;-96
2023/05/20 06:22:47;;;;;;;10.07;2.42;;;;;;;;;;6219554;23;19992;-96
2023/05/20 06:25:15;;;;;;;3.75;2.30;;;;;;;;;;6220121;23;20029;-96
2023/05/20 06:27:43;;;;;;;5.15;2.50;;;;;;;;;;6216768;23;20127;-95
2023/05/20 06:30:11;;;;;;;6.22;2.83;;;;;;;;;;6218257;23;20031;-95
2023/05/20 06:32:39;;;;;;;3.72;2.13;;;;;;;;;;6216017;23;20024;-94
2023/05/20 06:35:08;;;;;;;4.68;2.05;;;;;;;;;;6219806;23;20083;-96
2023/05/20 06:37:43;;;;;;;4.88;2.47;;;;;;;;;;6218877;23;20004;-96
2023/05/20 06:40:14;;;;;;;4.70;2.63;;;;;;;;;;6219274;23;19996;-94
2023/05/20 06:42:40;;;;;;;5.32;1.80;;;;;;;;;;6218677;23;20327;-96
2023/05/20 06:45:11;;;;;;;3.60;2.20;;;;;;;;;;6221254;23;20020;-95
2023/05/20 06:47:42;;;;;;;4.53;2.05;;;;;;;;;;6219669;23;20785;-96
2023/05/20 06:50:08;;;;;;;5.38;2.20;;;;;;;;;;6222364;23;20032;-96
2023/05/20 06:52:35;;;;;;;4.93;2.10;;;;;;;;;;6220801;23;20017;-96
2023/05/20 06:55:06;;;;;;;4.65;1.92;;;;;;;;;;6220292;23;19998;-96
2023/05/20 06:57:34;;;;;;;5.07;2.40;;;;;;;;;;6221165;23;20016;-96
2023/05/20 06:59:59;;;;;;;8.73;2.75;;;;;;;;;;6216247;23;20311;-96
2023/05/20 07:02:27;;;;;;;4.80;2.40;;;;;;;;;;6218925;23;20004;-94
2023/05/20 07:05:00;;;;;;;2.58;1.63;;;;;;;;;;6218826;23;19996;-95
2023/05/20 07:07:33;;;;;;;10.07;2.83;;;;;;;;;;6218749;23;20355;-94
2023/05/20 07:09:58;;;;;;;2.50;1.55;;;;;;;;;;6219495;23;20051;-96
2023/05/20 07:12:26;;;;;;;5.97;2.80;;;;;;;;;;6219454;23;20008;-96
2023/05/20 07:14:54;;;;;;;4.97;2.58;;;;;;;;;;6219222;23;20019;-94
2023/05/20 07:17:25;;;;;;;4.68;2.58;;;;;;;;;;6219006;23;20027;-96
2023/05/20 07:19:50;;;;;;;4.07;2.30;;;;;;;;;;6217602;23;19997;-96
2023/05/20 07:22:16;;;;;;;4.43;2.28;;;;;;;;;;6217814;23;20026;-95
2023/05/20 07:24:41;;;;;;;3.90;1.83;;;;;;;;;;6222445;23;19996;-95
2023/05/20 07:27:07;;;;;;;4.93;2.20;;;;;;;;;;6221372;23;20024;-96
2023/05/20 07:29:33;;;;;;;7.38;2.83;;;;;;;;;;6220660;23;20001;-95
2023/05/20 07:31:58;;;;;;;10.63;2.00;;;;;;;;;;6219771;23;20022;-96
2023/05/20 07:34:23;;;;;;;4.57;2.33;;;;;;;;;;6220268;23;20004;-95
2023/05/20 07:36:55;;;;;;;5.10;2.65;;;;;;;;;;6222451;23;20008;-95
2023/05/20 07:39:23;;;;;;;4.97;2.00;;;;;;;;;;6219913;23;20031;-96
2023/05/20 07:41:51;;;;;;;4.60;2.20;;;;;;;;;;6220501;23;20008;-96
2023/05/20 07:44:21;;;;;;;5.07;2.55;;;;;;;;;;6222695;23;20410;-95
2023/05/20 07:46:49;;;;;;;6.45;2.10;;;;;;;;;;6221545;23;20008;-95
2023/05/20 07:49:14;;;;;;;6.70;2.60;;;;;;;;;;6223113;23;20004;-96
2023/05/20 07:51:40;;;;;;;5.22;2.35;;;;;;;;;;6224209;23;20438;-96
2023/05/20 07:54:08;;;;;;;5.30;2.00;;;;;;;;;;6225913;23;20008;-96
2023/05/20 07:56:39;;;;;;;4.82;2.25;;;;;;;;;;6253875;23;20000;-96
2023/05/20 07:59:08;;;;;;;11.00;2.15;;;;;;;;;;6220267;23;20035;-95
2023/05/20 08:01:53;;;;;;;5.32;2.75;;;;;;;;;;6220624;23;20008;-96
2023/05/20 08:04:21;;;;;;;4.25;2.60;;;;;;;;;;6243800;23;20071;-95
2023/05/20 08:06:58;;;;;;;6.72;3.03;;;;;;;;;;6219005;23;20008;-95
2023/05/20 08:09:23;;;;;;;3.53;1.90;;;;;;;;;;6219561;23;20050;-95
2023/05/20 08:11:54;;;;;;;4.03;2.20;;;;;;;;;;6243444;23;20419;-95
2023/05/20 08:14:19;;;;;;;3.88;1.88;;;;;;;;;;6243258;23;20014;-94
2023/05/20 08:16:48;;;;;;;4.80;2.20;;;;;;;;;;6243331;23;20000;-94
2023/05/20 08:19:13;;;;;;;5.13;1.83;;;;;;;;;;6242843;23;20043;-94
2023/05/20 08:21:46;;;;;;;4.32;2.15;;;;;;;;;;6244805;23;20394;-94
2023/05/20 08:24:11;;;;;;;3.95;2.38;;;;;;;;;;6244263;23;20475;-95
2023/05/20 08:26:41;;;;;;;5.80;2.38;;;;;;;;;;6244165;23;20016;-94
2023/05/20 08:29:07;;;;;;;3.83;1.80;;;;;;;;;;6244459;23;20434;-94
2023/05/20 08:31:32;;;;;;;3.28;1.95;;;;;;;;;;6244865;23;19992;-94
2023/05/20 08:33:58;;;;;;;3.40;1.95;;;;;;;;;;6244467;23;20019;-94
2023/05/20 08:36:43;;;;;;;8.07;2.92;;;;;;;;;;6244363;23;20003;-94
2023/05/20 08:39:11;;;;;;;4.82;1.85;;;;;;;;;;6244393;23;20004;-94
2023/05/20 08:41:46;;;;;;;4.15;1.77;;;;;;;;;;6243227;23;20000;-95
2023/05/20 08:44:12;;;;;;;3.67;1.77;;;;;;;;;;6243223;23;20015;-95
2023/05/20 08:46:38;;;;;;;6.90;2.10;;;;;;;;;;6242852;23;20000;-94
2023/05/20 08:49:05;;;;;;;3.33;1.90;;;;;;;;;;6242136;23;20161;-94
2023/05/20 08:51:32;;;;;;;4.85;2.47;;;;;;;;;;6243788;23;19988;-94
2023/05/20 08:53:58;;;;;;;4.28;1.98;;;;;;;;;;6240251;23;20450;-94
2023/05/20 08:56:27;;;;;;;3.53;2.10;;;;;;;;;;6244326;23;20336;-94
2023/05/20 08:58:55;;;;;;;6.88;2.47;;;;;;;;;;6241921;23;20083;-95
2023/05/20 09:01:49;;;;;;;3.42;2.00;;;;;;;;;;6242807;23;20042;-95
2023/05/20 09:04:17;;;;;;;9.77;2.20;;;;;;;;;;6216796;23;20004;-94
2023/05/20 09:09:29;;;;;;;4.07;1.80;;;;;;;;;;6242832;23;20015;-94
2023/05/20 09:11:57;;;;;;;9.68;2.20;;;;;;;;;;6217502;23;20086;-94
2023/05/20 09:14:25;;;;;;;4.45;2.20;;;;;;;;;;6216879;23;20339;-95
2023/05/20 09:16:58;;;;;;;3.70;1.67;;;;;;;;;;6217687;23;19996;-94
2023/05/20 09:19:26;;;;;;;6.43;1.98;;;;;;;;;;6218520;23;20000;-94
2023/05/20 09:21:57;;;;;;;9.00;1.90;;;;;;;;;;6218654;23;20004;-93
2023/05/20 09:24:23;;;;;;;3.03;1.75;;;;;;;;;;6216372;23;20011;-94
2023/05/20 09:26:49;;;;;;;6.57;2.13;;;;;;;;;;6216277;23;20070;-94
2023/05/20 09:29:14;;;;;;;5.20;2.25;;;;;;;;;;6217524;23;20008;-95
2023/05/20 09:31:39;;;;;;;3.55;1.95;;;;;;;;;;6217952;23;20007;-94
2023/05/20 09:34:08;;;;;;;3.13;1.77;;;;;;;;;;6217030;23;20007;-95
2023/05/20 09:36:41;;;;;;;3.25;1.80;;;;;;;;;;6216288;23;19988;-94
2023/05/20 09:39:08;;;;;;;4.30;1.92;;;;;;;;;;6217784;23;20004;-94
2023/05/20 09:42:08;;;;;;;3.35;1.65;;;;;;;;;;6216738;23;20027;-96
2023/05/20 09:44:45;;;;;;;3.20;1.80;;;;;;;;;;6217550;23;20088;-95
2023/05/20 09:47:37;;;;;;;4.95;2.00;;;;;;;;;;6216313;23;20125;-95
2023/05/20 09:50:02;;;;;;;2.53;1.83;;;;;;;;;;6242543;23;20004;-94
2023/05/20 09:52:27;;;;;;;4.03;1.48;;;;;;;;;;6218659;23;20015;-94
2023/05/20 09:55:00;;;;;;;6.18;1.73;;;;;;;;;;6218090;23;20012;-95
2023/05/20 09:57:25;;;;;;;5.55;1.80;;;;;;;;;;6213999;23;20000;-95
2023/05/20 09:59:51;;;;;;;5.32;2.13;;;;;;;;;;6217422;23;20083;-95
2023/05/20 10:02:22;;;;;;;6.93;2.22;;;;;;;;;;6217365;23;20004;-95
2023/05/20 10:04:50;;;;;;;4.63;1.63;;;;;;;;;;6217071;23;20015;-95
2023/05/20 10:07:48;;;;;;;3.67;2.05;;;;;;;;;;6215701;23;20323;-95
2023/05/20 10:10:35;;;;;;;6.45;1.45;;;;;;;;;;6180627;23;20423;-94
2023/05/20 10:13:03;;;;;;;5.32;1.60;;;;;;;;;;6241733;23;20090;-95
2023/05/20 10:15:44;;;;;;;7.82;2.00;;;;;;;;;;6243073;23;20063;-94
2023/05/20 10:18:21;;;;;;;4.38;1.98;;;;;;;;;;6217579;23;20186;-94
2023/05/20 10:20:47;;;;;;;5.35;1.60;;;;;;;;;;6242736;23;20008;-95
2023/05/20 10:23:29;;;;;;;3.20;2.00;;;;;;;;;;6218123;23;20465;-95
2023/05/20 10:25:55;;;;;;;3.72;2.03;;;;;;;;;;6216761;23;20004;-95
2023/05/20 10:28:34;;;;;;;3.63;1.70;;;;;;;;;;6217405;23;20059;-94
2023/05/20 10:31:03;;;;;;;3.85;2.10;;;;;;;;;;6215664;23;20095;-94
2023/05/20 10:33:28;;;;;;;5.50;1.73;;;;;;;;;;6216791;23;20027;-95
2023/05/20 10:35:58;;;;;;;3.60;1.98;;;;;;;;;;6216244;23;20008;-95
2023/05/20 10:38:23;;;;;;;3.67;1.70;;;;;;;;;;6217423;23;20019;-94
2023/05/20 10:40:59;;;;;;;;;;;;;;;;;;;;;
2023/05/20 10:43:26;;;;;;;6.38;2.40;;;;;;;;;;6243803;23;20075;-94
2023/05/20 10:45:53;;;;;;;4.85;2.38;;;;;;;;;;6216279;23;20000;-96
2023/05/20 10:48:31;;;;;;;4.53;2.10;;;;;;;;;;6216676;23;20362;-96
2023/05/20 10:51:05;;;;;;;2.45;1.40;;;;;;;;;;6216777;23;20000;-94
2023/05/20 10:53:38;;;;;;;4.93;1.75;;;;;;;;;;6218090;23;20080;-92
2023/05/20 10:56:03;;;;;;;2.67;1.75;;;;;;;;;;6216526;23;20011;-96
2023/05/20 10:58:39;;;;;;;5.97;2.13;;;;;;;;;;6215136;23;20027;-94
2023/05/20 11:01:07;;;;;;;4.57;1.92;;;;;;;;;;6217554;23;20071;-94
2023/05/20 11:03:33;;;;;;;5.25;2.08;;;;;;;;;;6216881;23;20004;-94
2023/05/20 11:06:01;;;;;;;8.32;2.83;;;;;;;;;;6218082;23;20028;-94
2023/05/20 11:08:59;;;;;;;2.60;1.67;;;;;;;;;;6218530;23;20020;-96
2023/05/20 11:14:54;;;;;;;;;;;;;;;;;;;;;
2023/05/20 11:27:02;;;;;;;6.57;2.38;;;;;;;;;;6181632;23;20009;-95
2023/05/20 12:48:27;;;;;;;1.83;1.17;;;;;;;;;;6296304;22;20059;-95
2023/05/20 12:51:04;;;;;;;4.28;1.88;;;;;;;;;;6294913;22;20011;-95
2023/05/20 12:53:35;;;;;;;3.88;2.13;;;;;;;;;;6295318;22;20145;-96
2023/05/20 12:56:03;;;;;;;4.25;1.58;;;;;;;;;;6293223;22;19992;-96
2023/05/20 12:58:32;;;;;;;3.70;2.20;;;;;;;;;;6297811;22;20000;-96
2023/05/20 13:01:25;;;;;;;;;;;;;;;;;;;;;
2023/05/20 13:04:00;;;;;;;3.28;1.67;;;;;;;;;;6298617;22;20000;-96
2023/05/20 13:06:28;;;;;;;7.53;1.35;;;;;;;;;;6296608;22;20012;-95
2023/05/20 13:09:14;;;;;;;4.50;2.28;;;;;;;;;;6295075;22;20026;-94
2023/05/20 13:11:43;;;;;;;3.25;2.08;;;;;;;;;;6299384;22;19998;-95
2023/05/20 13:14:28;;;;;;;3.42;1.77;;;;;;;;;;6294105;22;20055;-94
2023/05/20 13:16:55;;;;;;;7.65;2.45;;;;;;;;;;6298071;22;20023;-95
2023/05/20 13:19:21;;;;;;;7.53;2.30;;;;;;;;;;6294297;22;20053;-95
2023/05/20 13:21:54;;;;;;;1.90;1.42;;;;;;;;;;6292319;22;20008;-95
2023/05/20 13:24:20;;;;;;;4.57;2.17;;;;;;;;;;6273817;22;20059;-96
2023/05/20 13:26:48;;;;;;;2.35;1.60;;;;;;;;;;6298814;22;20000;-94
2023/05/20 13:29:14;;;;;;;4.43;2.40;;;;;;;;;;6299007;22;20081;-95
2023/05/20 13:31:39;;;;;;;7.35;2.08;;;;;;;;;;6294492;22;19992;-94
2023/05/20 13:34:06;;;;;;;3.13;1.77;;;;;;;;;;6295795;22;19999;-94
2023/05/20 13:36:32;;;;;;;5.20;2.42;;;;;;;;;;6299454;22;20010;-95
2023/05/20 13:38:59;;;;;;;4.03;2.33;;;;;;;;;;6293259;22;20019;-95
2023/05/20 13:41:29;;;;;;;2.05;1.55;;;;;;;;;;6285441;22;20000;-95
2023/05/20 13:43:54;;;;;;;3.22;1.67;;;;;;;;;;6309454;22;20006;-94
2023/05/20 13:46:23;;;;;;;3.97;1.80;;;;;;;;;;6281878;22;20030;-96
2023/05/20 13:48:49;;;;;;;2.90;1.77;;;;;;;;;;6282962;22;20003;-95
2023/05/20 13:51:15;;;;;;;2.83;1.85;;;;;;;;;;6256736;22;20022;-95
2023/05/20 13:53:41;;;;;;;6.05;1.77;;;;;;;;;;6292410;22;19995;-96
2023/05/20 13:56:08;;;;;;;2.92;1.73;;;;;;;;;;6293274;22;20007;-94
2023/05/20 13:58:36;;;;;;;4.38;2.30;;;;;;;;;;6283563;22;19996;-95
2023/05/20 14:01:03;;;;;;;3.15;1.75;;;;;;;;;;6283860;22;20007;-95
2023/05/20 14:03:30;;;;;;;7.43;1.77;;;;;;;;;;6291281;22;20091;-95
2023/05/20 14:05:55;;;;;;;3.05;1.85;;;;;;;;;;6285118;22;20018;-94
2023/05/20 14:08:22;;;;;;;3.35;2.15;;;;;;;;;;6255216;22;20016;-95
2023/05/20 14:10:54;;;;;;;5.97;2.40;;;;;;;;;;6290584;22;20000;-94
2023/05/20 14:13:20;;;;;;;7.60;2.28;;;;;;;;;;6292067;22;20114;-95
2023/05/20 14:15:48;;;;;;;4.32;2.20;;;;;;;;;;6292058;22;20054;-94
2023/05/20 14:18:24;;;;;;;5.22;2.58;;;;;;;;;;6294858;22;20003;-95
2023/05/20 14:20:49;;;;;;;3.72;2.03;;;;;;;;;;6288307;22;20003;-94
2023/05/20 14:23:14;;;;;;;4.93;2.08;;;;;;;;;;6278158;22;20003;-95
2023/05/20 14:25:43;;;;;;;3.80;2.13;;;;;;;;;;6293219;22;20008;-96
2023/05/20 14:28:13;;;;;;;5.50;2.72;;;;;;;;;;6296051;22;20007;-95
2023/05/20 14:30:41;;;;;;;5.78;2.22;;;;;;;;;;6292009;22;19984;-96
2023/05/20 14:33:08;;;;;;;5.50;2.35;;;;;;;;;;6290850;22;20004;-95
2023/05/20 14:35:33;;;;;;;5.53;2.70;;;;;;;;;;6294633;22;20011;-96
2023/05/20 14:37:59;;;;;;;7.82;2.60;;;;;;;;;;6292417;22;19999;-96
2023/05/20 14:40:26;;;;;;;7.63;3.00;;;;;;;;;;6296335;22;20026;-95
2023/05/20 14:42:51;;;;;;;5.03;2.30;;;;;;;;;;6290678;22;20063;-96
2023/05/20 14:45:17;;;;;;;8.98;2.53;;;;;;;;;;6291078;22;20049;-95
2023/05/20 14:47:42;;;;;;;4.55;2.15;;;;;;;;;;6293775;22;20022;-96
2023/05/20 14:50:08;;;;;;;7.85;2.92;;;;;;;;;;6292746;22;20079;-96
2023/05/20 14:52:33;;;;;;;5.07;2.30;;;;;;;;;;6287730;22;20003;-96
2023/05/20 14:54:58;;;;;;;5.63;2.33;;;;;;;;;;6287898;22;19996;-96
2023/05/20 14:57:24;;;;;;;6.30;3.60;;;;;;;;;;6288993;22;20082;-96
2023/05/20 14:59:50;;;;;;;4.68;2.42;;;;;;;;;;6287500;22;19984;-96
2023/05/20 15:02:15;;;;;;;5.55;2.50;;;;;;;;;;6287162;22;20029;-96
2023/05/20 15:04:45;;;;;;;6.35;3.17;;;;;;;;;;6291498;22;20010;-96
2023/05/20 15:07:10;;;;;;;4.65;2.75;;;;;;;;;;6289701;22;20338;-96
2023/05/20 15:09:36;;;;;;;4.50;2.55;;;;;;;;;;6290985;22;20007;-94
2023/05/20 15:12:01;;;;;;;6.68;2.95;;;;;;;;;;6290919;22;20307;-96
2023/05/20 15:14:27;;;;;;;4.15;2.72;;;;;;;;;;6287693;22;20018;-96
2023/05/20 15:16:52;;;;;;;5.32;2.67;;;;;;;;;;6288546;22;20000;-96
2023/05/20 15:19:18;;;;;;;4.32;2.38;;;;;;;;;;6263588;22;20038;-96
2023/05/20 15:21:50;;;;;;;6.10;3.17;;;;;;;;;;6265186;22;20073;-96
2023/05/20 15:24:15;;;;;;;;;;;;;;;;;;6287014;22;20103;-96
2023/05/20 15:26:40;;;;;;;5.13;3.15;;;;;;;;;;6316052;22;20278;-96
2023/05/20 15:29:13;;;;;;;7.05;2.90;;;;;;;;;;6291201;22;20008;-95
2023/05/20 15:31:38;;;;;;;5.22;3.28;;;;;;;;;;6312911;22;19999;-96
2023/05/20 15:34:06;;;;;;;4.50;3.00;;;;;;;;;;6290212;22;20018;-96
2023/05/20 15:36:33;;;;;;;5.65;3.10;;;;;;;;;;6291365;22;20020;-96
2023/05/20 15:38:58;;;;;;;5.07;2.42;;;;;;;;;;6287718;22;20022;-96
2023/05/20 15:41:24;;;;;;;4.68;2.80;;;;;;;;;;6288466;22;20312;-95
2023/05/20 15:43:50;;;;;;;3.88;2.63;;;;;;;;;;6286480;22;20008;-96
2023/05/20 15:46:16;;;;;;;8.50;3.50;;;;;;;;;;6261097;22;20014;-96
2023/05/20 15:48:42;;;;;;;3.90;3.03;;;;;;;;;;6290600;22;20046;-96
2023/05/20 15:51:07;;;;;;;3.42;2.28;;;;;;;;;;6263843;22;20023;-96
2023/05/20 15:53:32;;;;;;;4.60;3.17;;;;;;;;;;6290165;22;20008;-96
2023/05/20 15:55:58;;;;;;;6.50;2.50;;;;;;;;;;6290680;22;20008;-96
2023/05/20 15:58:24;;;;;;;5.03;2.30;;;;;;;;;;6287783;22;20015;-96
2023/05/20 16:00:50;;;;;;;3.90;1.98;;;;;;;;;;6305652;22;20430;-95
2023/05/20 16:03:15;;;;;;;7.10;2.42;;;;;;;;;;6280032;22;20011;-94
2023/05/20 16:05:41;;;;;;;4.63;2.30;;;;;;;;;;6278437;22;20457;-94
2023/05/20 16:08:06;;;;;;;2.78;1.58;;;;;;;;;;6278210;22;20016;-94
2023/05/20 16:10:33;;;;;;;4.93;2.55;;;;;;;;;;6279401;22;20407;-95
2023/05/20 16:13:01;;;;;;;4.10;2.50;;;;;;;;;;6278320;22;20466;-96
2023/05/20 16:15:30;;;;;;;3.85;2.30;;;;;;;;;;6277836;22;20065;-96
2023/05/20 16:17:57;;;;;;;6.43;2.50;;;;;;;;;;6289625;22;20493;-96
2023/05/20 16:20:22;;;;;;;10.48;2.08;;;;;;;;;;6287753;22;19996;-96
2023/05/20 16:22:48;;;;;;;4.15;2.47;;;;;;;;;;6284812;22;20000;-95
2023/05/20 16:25:15;;;;;;;5.20;1.85;;;;;;;;;;6288529;22;20133;-96
2023/05/20 16:27:41;;;;;;;4.97;2.58;;;;;;;;;;6289931;22;20007;-95
2023/05/20 16:30:08;;;;;;;3.50;2.28;;;;;;;;;;6289041;22;20027;-96
2023/05/20 16:32:34;;;;;;;5.72;2.65;;;;;;;;;;6263465;22;20014;-96
2023/05/20 16:35:00;;;;;;;4.47;2.22;;;;;;;;;;6288858;22;20039;-96
2023/05/20 16:37:25;;;;;;;5.22;2.53;;;;;;;;;;6289691;22;20476;-94
2023/05/20 16:39:51;;;;;;;5.50;2.85;;;;;;;;;;6288825;22;20403;-96
2023/05/20 16:42:16;;;;;;;4.28;2.13;;;;;;;;;;6261842;22;20014;-96
2023/05/20 16:44:41;;;;;;;4.35;1.98;;;;;;;;;;6286740;22;19996;-95
2023/05/20 16:47:07;;;;;;;3.00;2.13;;;;;;;;;;6287051;22;20047;-96
2023/05/20 16:49:33;;;;;;;7.22;2.40;;;;;;;;;;6288070;22;20023;-96